createdAt,value
2019-03-21T00:01:29.781Z,144.80
2019-03-21T00:04:00.388Z,143.62
2019-03-21T00:06:28.198Z,144.62
2019-03-21T00:08:56.220Z,144.17
2019-03-21T00:12:00.881Z,144.77
2019-03-21T00:14:35.801Z,144.37
2019-03-21T00:17:05.094Z,144.53
2019-03-21T00:19:32.765Z,143.28
2019-03-21T00:22:00.415Z,143.32
2019-03-21T00:24:28.136Z,144.47
2019-03-21T00:26:58.400Z,143.28
2019-03-21T00:29:26.061Z,142.82
2019-03-21T00:31:55.337Z,143.17
2019-03-21T00:34:22.905Z,142.90
2019-03-21T00:36:50.769Z,142.77
2019-03-21T00:39:18.498Z,144.28
2019-03-21T00:41:46.240Z,143.05
2019-03-21T00:44:18.230Z,143.10
2019-03-21T00:46:43.465Z,142.65
2019-03-21T00:49:11.237Z,141.70
2019-03-21T00:51:38.935Z,142.22
2019-03-21T00:54:08.008Z,142.32
2019-03-21T00:56:36.041Z,143.85
2019-03-21T00:59:03.703Z,143.25
2019-03-21T01:01:32.815Z,144.43
2019-03-21T01:04:00.353Z,143.32
2019-03-21T01:06:28.123Z,143.55
2019-03-21T01:08:56.124Z,144.07
2019-03-21T01:11:23.720Z,143.43
2019-03-21T01:13:51.292Z,142.40
2019-03-21T01:16:20.706Z,143.60
2019-03-21T01:18:48.375Z,141.77
2019-03-21T01:21:16.045Z,141.45
2019-03-21T01:23:44.275Z,143.32
2019-03-21T01:26:13.184Z,142.28
2019-03-21T01:28:40.734Z,142.43
2019-03-21T01:31:08.424Z,142.55
2019-03-21T01:33:36.983Z,142.22
2019-03-21T01:36:08.778Z,142.13
2019-03-21T01:38:36.977Z,141.37
2019-03-21T01:41:04.776Z,140.88
2019-03-21T01:43:34.215Z,142.10
2019-03-21T01:46:03.008Z,142.05
2019-03-21T01:48:30.939Z,141.88
2019-03-21T01:50:58.906Z,140.62
2019-03-21T01:53:29.929Z,141.35
2019-03-21T01:55:57.697Z,140.35
2019-03-21T01:58:25.573Z,141.57
2019-03-21T02:00:53.159Z,140.55
2019-03-21T02:03:20.873Z,141.05
2019-03-21T02:05:48.749Z,141.55
2019-03-21T02:08:16.428Z,142.28
2019-03-21T02:10:44.559Z,140.70
2019-03-21T02:13:12.306Z,141.57
2019-03-21T02:15:41.104Z,142.85
2019-03-21T02:18:10.331Z,142.05
2019-03-21T02:20:38.015Z,141.77
2019-03-21T02:23:05.624Z,142.68
2019-03-21T02:25:33.823Z,140.95
2019-03-21T02:28:01.377Z,141.60
2019-03-21T02:30:34.145Z,142.07
2019-03-21T02:33:29.303Z,142.55
2019-03-21T02:35:56.988Z,141.77
2019-03-21T02:38:24.662Z,143.07
2019-03-21T02:40:52.347Z,141.97
2019-03-21T02:43:20.149Z,141.77
2019-03-21T02:45:48.208Z,142.00
2019-03-21T02:48:16.999Z,143.20
2019-03-21T02:50:45.878Z,143.10
2019-03-21T02:53:13.534Z,143.87
2019-03-21T02:55:41.082Z,141.80
2019-03-21T02:58:08.770Z,142.50
2019-03-21T03:00:36.698Z,142.28
2019-03-21T03:03:05.949Z,142.18
2019-03-21T03:05:33.727Z,142.57
2019-03-21T03:08:01.633Z,142.87
2019-03-21T03:10:32.027Z,141.95
2019-03-21T03:12:59.828Z,141.60
2019-03-21T03:15:29.088Z,142.93
2019-03-21T03:17:56.635Z,140.88
2019-03-21T03:20:24.268Z,141.68
2019-03-21T03:22:51.815Z,141.57
2019-03-21T03:25:19.388Z,142.10
2019-03-21T03:27:49.283Z,140.30
2019-03-21T03:30:18.957Z,141.18
2019-03-21T03:32:46.649Z,141.68
2019-03-21T03:35:14.669Z,142.30
2019-03-21T03:37:42.696Z,142.70
2019-03-21T03:40:13.334Z,142.85
2019-03-21T03:42:42.719Z,143.53
2019-03-21T03:45:13.874Z,142.55
2019-03-21T03:47:41.585Z,144.05
2019-03-21T03:50:09.868Z,143.30
2019-03-21T03:52:37.405Z,142.47
2019-03-21T03:55:06.980Z,144.17
2019-03-21T03:57:34.879Z,142.70
2019-03-21T04:00:02.877Z,143.70
2019-03-21T04:02:30.666Z,144.43
2019-03-21T04:04:59.770Z,142.70
2019-03-21T04:07:27.631Z,142.77
2019-03-21T04:09:56.647Z,142.33
2019-03-21T04:12:24.902Z,143.57
2019-03-21T04:14:52.496Z,144.13
2019-03-21T04:17:20.098Z,142.63
2019-03-21T04:19:47.710Z,143.80
2019-03-21T04:22:16.591Z,143.43
2019-03-21T04:24:44.309Z,144.53
2019-03-21T04:27:11.928Z,142.97
2019-03-21T04:29:39.481Z,143.32
2019-03-21T04:32:07.048Z,144.10
2019-03-21T04:34:34.676Z,143.55
2019-03-21T04:37:02.210Z,145.02
2019-03-21T04:39:29.857Z,145.17
2019-03-21T04:41:57.440Z,143.82
2019-03-21T04:44:25.013Z,145.03
2019-03-21T04:46:52.556Z,145.70
2019-03-21T04:49:20.697Z,144.23
2019-03-21T04:51:48.363Z,146.03
2019-03-21T04:54:16.132Z,144.13
2019-03-21T04:56:43.892Z,145.73
2019-03-21T04:59:11.507Z,143.93
2019-03-21T05:01:39.086Z,143.60
2019-03-21T05:04:08.217Z,142.72
2019-03-21T05:06:35.894Z,144.10
2019-03-21T05:09:06.601Z,145.30
2019-03-21T05:11:36.560Z,145.97
2019-03-21T05:14:04.117Z,144.37
2019-03-21T05:16:31.834Z,144.63
2019-03-21T05:19:00.019Z,143.43
2019-03-21T05:21:29.365Z,143.03
2019-03-21T05:23:56.940Z,144.77
2019-03-21T05:26:24.538Z,143.07
2019-03-21T05:28:52.116Z,145.90
2019-03-21T05:31:23.713Z,143.87
2019-03-21T05:33:51.331Z,143.20
2019-03-21T05:36:18.942Z,143.55
2019-03-21T05:38:46.812Z,143.60
2019-03-21T05:41:15.700Z,144.77
2019-03-21T05:43:52.538Z,147.32
2019-03-21T05:46:26.518Z,143.50
2019-03-21T05:48:50.782Z,144.60
2019-03-21T05:51:18.352Z,145.85
2019-03-21T05:53:46.015Z,146.15
2019-03-21T05:56:27.311Z,145.77
2019-03-21T05:58:55.346Z,147.37
2019-03-21T06:01:23.001Z,147.15
2019-03-21T06:03:51.312Z,146.43
2019-03-21T06:06:23.013Z,147.80
2019-03-21T06:08:50.561Z,146.87
2019-03-21T06:11:18.144Z,148.60
2019-03-21T06:13:47.958Z,146.55
2019-03-21T06:16:15.664Z,147.22
2019-03-21T06:18:58.670Z,147.02
2019-03-21T06:21:43.159Z,153.15
2019-03-21T06:24:55.837Z,154.23
2019-03-21T06:27:31.889Z,153.93
2019-03-21T06:29:59.742Z,151.07
2019-03-21T06:32:27.487Z,150.50
2019-03-21T06:34:55.730Z,149.02
2019-03-21T06:37:23.901Z,151.05
2019-03-21T06:39:51.481Z,149.80
2019-03-21T06:42:19.089Z,150.10
2019-03-21T06:44:47.105Z,149.05
2019-03-21T06:47:14.853Z,149.45
2019-03-21T06:49:42.408Z,149.15
2019-03-21T06:52:10.104Z,150.05
2019-03-21T06:54:41.003Z,151.68
2019-03-21T06:57:09.663Z,151.95
2019-03-21T06:59:37.386Z,151.10
2019-03-21T07:02:04.937Z,152.50
2019-03-21T07:04:32.498Z,153.93
2019-03-21T07:07:08.038Z,156.12
2019-03-21T07:09:30.295Z,153.60
2019-03-21T07:11:58.197Z,156.02
2019-03-21T07:14:25.814Z,152.87
2019-03-21T07:17:00.269Z,152.30
2019-03-21T07:19:23.152Z,153.72
2019-03-21T07:21:50.817Z,152.60
2019-03-21T07:24:19.026Z,150.62
2019-03-21T07:26:46.631Z,151.32
2019-03-21T07:29:14.299Z,152.87
2019-03-21T07:31:43.196Z,153.25
2019-03-21T07:34:10.868Z,155.07
2019-03-21T07:36:38.549Z,154.05
2019-03-21T07:39:07.345Z,152.80
2019-03-21T07:41:35.030Z,153.30
2019-03-21T07:44:02.616Z,154.57
2019-03-21T07:46:32.048Z,154.10
2019-03-21T07:48:59.686Z,154.40
2019-03-21T07:51:27.938Z,155.35
2019-03-21T07:53:55.544Z,154.25
2019-03-21T07:56:25.031Z,154.03
2019-03-21T07:58:52.965Z,156.02
2019-03-21T08:01:20.523Z,156.07
2019-03-21T08:03:48.322Z,154.20
2019-03-21T08:06:16.386Z,155.82
2019-03-21T08:08:44.045Z,157.50
2019-03-21T08:11:11.634Z,155.22
2019-03-21T08:13:39.391Z,153.80
2019-03-21T08:16:06.983Z,155.25
2019-03-21T08:18:34.580Z,157.10
2019-03-21T08:21:04.220Z,157.50
2019-03-21T08:23:31.897Z,155.95
2019-03-21T08:25:59.573Z,156.97
2019-03-21T08:28:27.700Z,155.78
2019-03-21T08:31:13.413Z,156.80
2019-03-21T08:33:42.241Z,156.02
2019-03-21T08:36:09.867Z,157.67
2019-03-21T08:38:38.535Z,154.27
2019-03-21T08:41:06.265Z,156.18
2019-03-21T08:43:33.923Z,159.27
2019-03-21T08:46:02.123Z,156.45
2019-03-21T08:48:30.983Z,155.05
2019-03-21T08:51:07.687Z,155.87
2019-03-21T08:53:28.126Z,155.45
2019-03-21T08:55:55.712Z,155.78
2019-03-21T08:58:23.509Z,154.78
2019-03-21T09:00:51.329Z,155.05
2019-03-21T09:03:19.350Z,157.30
2019-03-21T09:05:46.913Z,156.28
2019-03-21T09:08:14.563Z,156.80
2019-03-21T09:10:42.670Z,155.85
2019-03-21T09:13:10.250Z,154.87
2019-03-21T09:15:37.824Z,153.65
2019-03-21T09:18:05.529Z,154.78
2019-03-21T09:20:33.673Z,156.12
2019-03-21T09:23:01.230Z,155.20
2019-03-21T09:25:29.156Z,154.70
2019-03-21T09:28:05.439Z,156.37
2019-03-21T09:30:33.177Z,155.07
2019-03-21T09:33:03.242Z,154.65
2019-03-21T09:35:30.883Z,155.97
2019-03-21T09:37:58.830Z,157.32
2019-03-21T09:40:26.930Z,159.05
2019-03-21T09:42:54.592Z,156.02
2019-03-21T09:45:22.413Z,156.63
2019-03-21T09:47:50.980Z,157.07
2019-03-21T09:50:26.079Z,155.80
2019-03-21T09:52:57.625Z,157.22
2019-03-21T09:55:27.203Z,156.10
2019-03-21T09:57:54.815Z,155.67
2019-03-21T10:00:29.661Z,159.15
2019-03-21T10:02:58.335Z,157.07
2019-03-21T10:05:26.050Z,157.52
2019-03-21T10:07:54.024Z,156.25
2019-03-21T10:10:26.939Z,160.65
2019-03-21T10:12:55.638Z,157.25
2019-03-21T10:15:24.623Z,157.30
2019-03-21T10:17:52.262Z,157.65
2019-03-21T10:20:20.422Z,160.63
2019-03-21T10:22:47.979Z,158.40
2019-03-21T10:25:19.011Z,156.18
2019-03-21T10:27:48.677Z,160.25
2019-03-21T10:30:30.303Z,158.50
2019-03-21T10:32:58.254Z,156.93
2019-03-21T10:35:26.164Z,159.12
2019-03-21T10:37:53.798Z,161.40
2019-03-21T10:40:21.423Z,158.87
2019-03-21T10:42:49.131Z,160.97
2019-03-21T10:45:16.812Z,160.10
2019-03-21T10:47:44.436Z,161.57
2019-03-21T10:50:15.692Z,164.37
2019-03-21T10:52:43.308Z,164.77
2019-03-21T10:55:11.022Z,164.65
2019-03-21T10:57:38.606Z,163.95
2019-03-21T11:00:07.026Z,163.12
2019-03-21T11:02:35.226Z,164.10
2019-03-21T11:05:02.992Z,163.45
2019-03-21T11:07:30.972Z,161.47
2019-03-21T11:09:59.867Z,164.22
2019-03-21T11:12:27.588Z,162.03
2019-03-21T11:14:55.262Z,160.48
2019-03-21T11:17:23.515Z,162.50
2019-03-21T11:19:51.199Z,160.28
2019-03-21T11:22:18.764Z,159.93
2019-03-21T11:24:47.352Z,159.27
2019-03-21T11:27:18.359Z,160.72
2019-03-21T11:29:46.053Z,160.65
2019-03-21T11:32:16.166Z,160.97
2019-03-21T11:34:43.743Z,162.22
2019-03-21T11:37:12.188Z,160.30
2019-03-21T11:39:39.836Z,163.52
2019-03-21T11:42:07.455Z,161.73
2019-03-21T11:44:35.440Z,162.55
2019-03-21T11:47:03.184Z,162.82
2019-03-21T11:49:31.958Z,161.50
2019-03-21T11:52:00.281Z,161.05
2019-03-21T11:54:27.966Z,163.12
2019-03-21T11:56:56.815Z,158.68
2019-03-21T11:59:24.515Z,159.65
2019-03-21T12:01:52.221Z,159.07
2019-03-21T12:04:19.811Z,159.87
2019-03-21T12:06:47.390Z,159.03
2019-03-21T12:09:15.013Z,160.52
2019-03-21T12:11:43.122Z,160.67
2019-03-21T12:14:10.745Z,156.85
2019-03-21T12:16:38.347Z,158.75
2019-03-21T12:19:07.930Z,159.32
2019-03-21T12:21:35.498Z,160.80
2019-03-21T12:24:03.143Z,159.32
2019-03-21T12:26:31.203Z,158.60
2019-03-21T12:28:58.804Z,159.97
2019-03-21T12:31:26.471Z,162.30
2019-03-21T12:34:06.475Z,160.52
2019-03-21T12:37:06.416Z,160.93
2019-03-21T12:39:38.006Z,160.90
2019-03-21T12:42:05.754Z,161.00
2019-03-21T12:44:33.466Z,164.00
2019-03-21T12:47:07.360Z,163.95
2019-03-21T12:49:48.516Z,165.40
2019-03-21T12:52:17.759Z,165.75
2019-03-21T12:54:45.551Z,163.77
2019-03-21T12:57:13.125Z,167.10
2019-03-21T12:59:44.681Z,165.03
2019-03-21T13:02:12.375Z,165.70
2019-03-21T13:04:40.173Z,164.03
2019-03-21T13:07:14.104Z,162.60
2019-03-21T13:09:41.722Z,163.25
2019-03-21T13:12:14.565Z,162.03
2019-03-21T13:14:42.161Z,161.77
2019-03-21T13:17:09.916Z,159.87
2019-03-21T13:19:37.742Z,164.30
2019-03-21T13:22:05.321Z,162.50
2019-03-21T13:24:33.303Z,160.32
2019-03-21T13:27:01.527Z,161.37
2019-03-21T13:29:29.117Z,159.55
2019-03-21T13:31:57.211Z,161.20
2019-03-21T13:34:25.372Z,162.37
2019-03-21T13:36:53.055Z,161.62
2019-03-21T13:39:20.757Z,163.43
2019-03-21T13:41:48.380Z,166.32
2019-03-21T13:44:16.375Z,162.85
2019-03-21T13:46:43.953Z,165.18
2019-03-21T13:49:11.968Z,161.82
2019-03-21T13:51:39.648Z,162.05
2019-03-21T13:54:08.787Z,167.35
2019-03-21T13:56:38.549Z,162.32
2019-03-21T13:59:07.403Z,161.95
2019-03-21T14:01:35.419Z,162.18
2019-03-21T14:04:03.012Z,163.10
2019-03-21T14:06:30.578Z,165.77
2019-03-21T14:08:58.261Z,165.32
2019-03-21T14:11:26.391Z,164.03
2019-03-21T14:13:54.103Z,163.72
2019-03-21T14:16:21.658Z,161.10
2019-03-21T14:18:49.748Z,162.10
2019-03-21T14:21:17.310Z,162.97
2019-03-21T14:23:44.984Z,161.22
2019-03-21T14:26:12.582Z,163.82
2019-03-21T14:28:41.720Z,165.37
2019-03-21T14:31:09.304Z,161.75
2019-03-21T14:33:37.182Z,163.28
2019-03-21T14:36:04.987Z,162.40
2019-03-21T14:38:32.759Z,164.75
2019-03-21T14:41:01.437Z,163.32
2019-03-21T14:43:29.194Z,163.90
2019-03-21T14:45:57.325Z,162.60
2019-03-21T14:48:24.932Z,163.05
2019-03-21T14:50:52.595Z,161.40
2019-03-21T14:53:28.809Z,163.20
2019-03-21T14:55:49.891Z,163.30
2019-03-21T14:58:17.588Z,162.85
2019-03-21T15:00:45.991Z,162.10
2019-03-21T15:03:15.548Z,162.18
2019-03-21T15:05:49.666Z,161.70
2019-03-21T15:08:26.248Z,161.35
2019-03-21T15:10:53.866Z,164.10
2019-03-21T15:13:22.869Z,163.62
2019-03-21T15:15:52.229Z,164.90
2019-03-21T15:18:19.788Z,163.03
2019-03-21T15:20:47.428Z,161.85
2019-03-21T15:23:15.350Z,163.40
2019-03-21T15:25:43.531Z,161.32
2019-03-21T15:28:46.225Z,162.32
2019-03-21T15:31:42.896Z,159.90
2019-03-21T15:34:14.559Z,159.85
2019-03-21T15:36:42.507Z,162.43
2019-03-21T15:39:10.174Z,163.52
2019-03-21T15:41:38.104Z,164.55
2019-03-21T15:44:08.259Z,161.47
2019-03-21T15:46:39.653Z,161.05
2019-03-21T15:49:13.357Z,160.32
2019-03-21T15:51:47.088Z,163.05
2019-03-21T15:54:26.122Z,162.00
2019-03-21T15:57:13.327Z,160.10
2019-03-21T15:59:42.714Z,161.80
2019-03-21T16:02:10.290Z,161.73
2019-03-21T16:04:37.925Z,160.72
2019-03-21T16:07:05.504Z,160.85
2019-03-21T16:09:33.094Z,161.35
2019-03-21T16:12:00.866Z,162.40
2019-03-21T16:14:28.598Z,161.75
2019-03-21T16:16:58.655Z,160.25
2019-03-21T16:19:30.284Z,162.15
2019-03-21T16:21:57.925Z,160.97
2019-03-21T16:24:25.607Z,160.95
2019-03-21T16:26:53.296Z,162.37
2019-03-21T16:29:20.973Z,161.70
2019-03-21T16:31:48.578Z,163.43
2019-03-21T16:34:17.692Z,161.97
2019-03-21T16:36:46.373Z,162.77
2019-03-21T16:39:14.111Z,161.07
2019-03-21T16:41:43.920Z,160.60
2019-03-21T16:44:12.143Z,160.22
2019-03-21T16:46:39.884Z,163.43
2019-03-21T16:49:07.649Z,162.60
2019-03-21T16:51:36.602Z,161.22
2019-03-21T16:54:16.232Z,161.03
2019-03-21T16:56:34.894Z,163.22
2019-03-21T16:59:14.701Z,160.32
2019-03-21T17:01:42.282Z,161.47
2019-03-21T17:04:09.942Z,160.93
2019-03-21T17:06:37.724Z,161.45
2019-03-21T17:09:07.525Z,163.30
2019-03-21T17:11:35.589Z,161.50
2019-03-21T17:14:03.206Z,161.62
2019-03-21T17:16:30.805Z,162.12
2019-03-21T17:18:58.534Z,161.22
2019-03-21T17:21:26.222Z,163.80
2019-03-21T17:23:53.847Z,163.45
2019-03-21T17:26:21.855Z,163.22
2019-03-21T17:28:49.735Z,164.97
2019-03-21T17:31:17.515Z,168.93
2019-03-21T17:33:45.173Z,161.92
2019-03-21T17:36:12.832Z,161.37
2019-03-21T17:38:40.479Z,157.47
2019-03-21T17:41:08.177Z,160.18
2019-03-21T17:43:36.110Z,159.22
2019-03-21T17:46:04.000Z,157.07
2019-03-21T17:48:31.612Z,159.45
2019-03-21T17:50:59.280Z,158.50
2019-03-21T17:53:27.440Z,158.05
2019-03-21T17:55:56.233Z,159.93
2019-03-21T17:58:23.969Z,158.35
2019-03-21T18:00:51.581Z,161.73
2019-03-21T18:03:19.286Z,162.95
2019-03-21T18:05:48.784Z,165.30
2019-03-21T18:08:16.973Z,160.93
2019-03-21T18:10:45.977Z,158.60
2019-03-21T18:13:13.902Z,159.07
2019-03-21T18:15:41.595Z,159.63
2019-03-21T18:18:09.316Z,158.90
2019-03-21T18:20:37.055Z,160.35
2019-03-21T18:23:06.153Z,159.43
2019-03-21T18:25:33.773Z,157.95
2019-03-21T18:28:02.133Z,157.45
2019-03-21T18:30:30.145Z,157.00
2019-03-21T18:32:59.059Z,156.37
2019-03-21T18:35:27.188Z,158.85
2019-03-21T18:37:55.110Z,159.20
2019-03-21T18:40:27.166Z,158.10
2019-03-21T18:42:54.856Z,158.03
2019-03-21T18:45:22.567Z,157.72
2019-03-21T18:47:50.750Z,159.25
2019-03-21T18:50:19.795Z,158.40
2019-03-21T18:52:47.391Z,157.90
2019-03-21T18:55:23.312Z,160.67
2019-03-21T18:57:50.881Z,157.90
2019-03-21T19:00:19.499Z,157.78
2019-03-21T19:02:47.085Z,158.18
2019-03-21T19:05:15.090Z,159.67
2019-03-21T19:07:43.762Z,158.80
2019-03-21T19:10:11.660Z,158.82
2019-03-21T19:12:39.802Z,157.32
2019-03-21T19:15:08.730Z,158.55
2019-03-21T19:17:36.430Z,155.30
2019-03-21T19:20:06.917Z,157.95
2019-03-21T19:22:34.551Z,156.50
2019-03-21T19:25:02.262Z,156.43
2019-03-21T19:27:30.837Z,155.90
2019-03-21T19:29:58.518Z,158.07
2019-03-21T19:32:26.158Z,156.45
2019-03-21T19:34:53.759Z,157.82
2019-03-21T19:37:22.619Z,156.20
2019-03-21T19:39:50.671Z,157.97
2019-03-21T19:42:18.989Z,158.25
2019-03-21T19:44:46.697Z,159.12
2019-03-21T19:47:23.045Z,158.22
2019-03-21T19:49:43.868Z,156.60
2019-03-21T19:52:11.442Z,155.27
2019-03-21T19:54:39.517Z,154.45
2019-03-21T19:57:07.489Z,154.10
2019-03-21T19:59:35.271Z,154.07
2019-03-21T20:02:03.002Z,155.95
2019-03-21T20:04:30.811Z,156.52
2019-03-21T20:06:58.454Z,155.90
2019-03-21T20:09:26.590Z,154.27
2019-03-21T20:11:55.698Z,154.63
2019-03-21T20:14:23.446Z,154.47
2019-03-21T20:16:51.160Z,154.60
2019-03-21T20:19:20.742Z,152.90
2019-03-21T20:21:48.537Z,154.32
2019-03-21T20:24:16.808Z,153.02
2019-03-21T20:26:44.668Z,155.22
2019-03-21T20:29:13.595Z,152.72
2019-03-21T20:31:41.822Z,151.82
2019-03-21T20:34:09.452Z,153.10
2019-03-21T20:36:38.316Z,154.47
2019-03-21T20:39:07.623Z,152.17
2019-03-21T20:41:35.652Z,154.50
2019-03-21T20:44:14.690Z,154.05
2019-03-21T20:46:33.633Z,152.78
2019-03-21T20:49:01.441Z,151.85
2019-03-21T20:51:29.654Z,153.78
2019-03-21T20:53:57.326Z,153.97
2019-03-21T20:56:24.983Z,151.75
2019-03-21T20:58:53.718Z,156.32
2019-03-21T21:01:21.799Z,155.03
2019-03-21T21:03:49.696Z,155.20
2019-03-21T21:06:18.625Z,153.72
2019-03-21T21:08:46.313Z,154.30
2019-03-21T21:11:13.970Z,154.15
2019-03-21T21:13:44.000Z,156.50
2019-03-21T21:16:11.738Z,155.55
2019-03-21T21:18:39.387Z,156.57
2019-03-21T21:21:07.083Z,155.85
2019-03-21T21:23:34.814Z,154.20
2019-03-21T21:26:05.710Z,155.18
2019-03-21T21:28:33.735Z,153.32
2019-03-21T21:31:01.400Z,153.78
2019-03-21T21:33:29.092Z,153.50
2019-03-21T21:35:56.957Z,155.22
2019-03-21T21:38:24.585Z,155.67
2019-03-21T21:40:53.269Z,153.87
2019-03-21T21:43:20.890Z,153.57
2019-03-21T21:45:49.028Z,154.90
2019-03-21T21:48:16.608Z,152.82
2019-03-21T21:50:44.475Z,155.93
2019-03-21T21:53:12.260Z,153.97
2019-03-21T21:55:40.160Z,153.18
2019-03-21T21:58:07.772Z,152.93
2019-03-21T22:00:35.849Z,152.53
2019-03-21T22:03:03.675Z,151.30
2019-03-21T22:05:31.391Z,152.80
2019-03-21T22:07:59.129Z,152.85
2019-03-21T22:10:29.338Z,152.55
2019-03-21T22:12:56.367Z,152.12
2019-03-21T22:15:24.931Z,154.25
2019-03-21T22:17:52.516Z,151.50
2019-03-21T22:20:20.111Z,154.15
2019-03-21T22:22:47.783Z,152.70
2019-03-21T22:25:15.417Z,152.02
2019-03-21T22:27:43.329Z,152.20
2019-03-21T22:30:12.035Z,150.25
2019-03-21T22:32:39.656Z,150.42
2019-03-21T22:35:07.764Z,150.10
2019-03-21T22:37:35.581Z,150.65
2019-03-21T22:40:05.658Z,149.47
2019-03-21T22:42:33.348Z,152.85
2019-03-21T22:45:01.027Z,151.02
2019-03-21T22:47:30.081Z,150.12
2019-03-21T22:49:58.193Z,151.10
2019-03-21T22:52:26.158Z,152.17
2019-03-21T22:54:54.236Z,152.07
2019-03-21T22:57:21.811Z,151.53
2019-03-21T22:59:49.445Z,150.42
2019-03-21T23:02:17.225Z,150.03
2019-03-21T23:04:44.940Z,150.25
2019-03-21T23:07:12.582Z,150.75
2019-03-21T23:09:40.450Z,151.05
2019-03-21T23:12:08.139Z,151.78
2019-03-21T23:14:35.799Z,168.62
2019-03-21T23:17:03.808Z,150.87
2019-03-21T23:19:31.466Z,148.80
2019-03-21T23:21:59.532Z,149.97
2019-03-21T23:24:27.301Z,149.47
2019-03-21T23:26:55.635Z,148.38
2019-03-21T23:29:23.339Z,150.32
2019-03-21T23:31:55.035Z,149.90
2019-03-21T23:34:23.648Z,150.50
2019-03-21T23:36:52.689Z,150.93
2019-03-21T23:39:22.061Z,150.45
2019-03-21T23:41:49.746Z,151.10
2019-03-21T23:44:17.852Z,151.00
2019-03-21T23:46:45.551Z,149.57
2019-03-21T23:49:13.631Z,149.65
2019-03-21T23:51:41.429Z,148.72
2019-03-21T23:54:09.652Z,149.23
2019-03-21T23:56:38.493Z,149.77
2019-03-21T23:59:06.181Z,148.68
